Time;durP1;ratioP1;P1;durP2;ratioP2;P2;SDS_P1;SDS_P2;PMS_P1;PMS_P2;Temp;Humidity;BMP_temperature;BMP_pressure;BME280_temperature;BME280_humidity;BME280_pressure;Samples;Min_cycle;Max_cycle;Signal;HPM_P1;HPM_P2
2023/02/10 00:01:56;;;;;;;49.00;31.37;;;4.20;20.30;;;;;;5082569;28;20458;-62
2023/02/10 00:04:22;;;;;;;50.42;31.77;;;4.20;20.80;;;;;;5082501;28;20426;-61
2023/02/10 00:06:49;;;;;;;48.00;30.30;;;4.20;21.30;;;;;;5080933;28;20994;-62
2023/02/10 00:09:16;;;;;;;50.00;31.50;;;4.20;24.20;;;;;;5085444;28;20426;-62
2023/02/10 00:11:59;;;;;;;51.00;31.57;;;4.30;18.60;;;;;;5087333;28;20480;-62
2023/02/10 00:14:29;;;;;;;50.78;31.42;;;4.30;18.20;;;;;;5077654;28;20418;-62
2023/02/10 00:16:57;;;;;;;50.97;32.22;;;4.40;16.00;;;;;;5082595;28;20483;-63
2023/02/10 00:19:25;;;;;;;51.58;32.20;;;4.20;21.90;;;;;;5080773;28;20442;-62
2023/02/10 00:21:52;;;;;;;50.65;32.53;;;4.20;25.30;;;;;;5082378;28;20414;-59
2023/02/10 00:24:19;;;;;;;52.38;32.90;;;4.10;31.50;;;;;;5083624;28;20421;-60
2023/02/10 00:26:46;;;;;;;51.13;33.25;;;4.10;35.10;;;;;;5082323;28;20425;-59
2023/02/10 00:29:13;;;;;;;54.70;33.08;;;4.00;44.70;;;;;;5079139;28;20471;-60
2023/02/10 00:31:42;;;;;;;54.20;32.97;;;4.00;52.00;;;;;;5082323;28;20421;-60
2023/02/10 00:34:11;;;;;;;51.97;32.63;;;4.10;56.10;;;;;;5079952;28;20416;-61
2023/02/10 00:36:38;;;;;;;49.08;31.63;;;4.10;59.50;;;;;;5081100;28;20500;-60
2023/02/10 00:39:05;;;;;;;55.60;33.15;;;4.10;57.30;;;;;;5081106;28;20409;-61
2023/02/10 00:41:32;;;;;;;54.50;33.40;;;4.00;71.30;;;;;;5080618;28;20420;-61
2023/02/10 00:43:58;;;;;;;52.58;32.47;;;3.90;77.70;;;;;;5082964;28;20411;-61
2023/02/10 00:46:25;;;;;;;51.20;32.45;;;4.10;80.80;;;;;;5081915;28;20417;-61
2023/02/10 00:48:53;;;;;;;53.15;33.30;;;4.00;76.10;;;;;;5079504;28;20433;-61
2023/02/10 00:51:20;;;;;;;54.70;33.97;;;4.00;78.90;;;;;;5082106;28;20546;-61
2023/02/10 00:53:49;;;;;;;55.85;33.15;;;4.10;82.70;;;;;;5079373;28;20469;-61
2023/02/10 00:56:16;;;;;;;54.38;33.35;;;4.00;80.40;;;;;;5080817;28;20427;-61
2023/02/10 00:58:43;;;;;;;55.97;33.97;;;3.90;81.40;;;;;;5081891;28;20412;-61
2023/02/10 01:01:10;;;;;;;58.50;34.80;;;4.00;92.00;;;;;;5081645;28;20426;-57
2023/02/10 01:03:37;;;;;;;57.97;34.27;;;4.00;93.80;;;;;;5079193;28;20427;-60
2023/02/10 01:06:06;;;;;;;56.85;34.88;;;4.10;94.70;;;;;;5077824;28;20419;-61
2023/02/10 01:08:34;;;;;;;57.90;35.35;;;4.10;94.60;;;;;;5080152;28;20422;-61
2023/02/10 01:11:02;;;;;;;55.38;34.20;;;4.00;94.50;;;;;;5085928;28;20780;-61
2023/02/10 01:13:30;;;;;;;58.45;34.40;;;4.10;96.30;;;;;;5083251;28;20416;-61
2023/02/10 01:15:57;;;;;;;59.08;34.75;;;4.10;95.00;;;;;;5075823;28;20463;-60
2023/02/10 01:18:23;;;;;;;59.95;35.03;;;4.10;97.20;;;;;;5081347;28;20815;-60
2023/02/10 01:20:50;;;;;;;56.88;34.35;;;4.10;97.90;;;;;;5075545;28;20474;-61
2023/02/10 01:23:18;;;;;;;57.70;34.55;;;4.10;98.30;;;;;;5079750;28;20463;-61
2023/02/10 01:25:45;;;;;;;57.13;35.42;;;4.30;96.60;;;;;;5088351;28;20467;-61
2023/02/10 01:28:11;;;;;;;58.75;35.42;;;4.20;92.40;;;;;;5082201;28;20787;-60
2023/02/10 01:30:38;;;;;;;58.67;35.78;;;4.10;93.50;;;;;;5085098;28;20471;-61
2023/02/10 01:33:05;;;;;;;52.75;34.25;;;4.10;96.30;;;;;;5078060;28;21064;-60
2023/02/10 01:35:32;;;;;;;61.13;36.72;;;4.00;96.80;;;;;;5081298;28;20420;-61
2023/02/10 01:37:58;;;;;;;65.13;37.85;;;3.80;99.90;;;;;;5081518;28;20413;-59
2023/02/10 01:40:27;;;;;;;60.57;36.93;;;3.80;99.90;;;;;;5081786;28;20934;-61
2023/02/10 01:42:54;;;;;;;60.72;36.25;;;3.90;99.90;;;;;;5084259;28;20778;-60
2023/02/10 01:45:27;;;;;;;59.55;36.65;;;3.80;99.90;;;;;;5080540;28;20420;-61
2023/02/10 01:47:55;;;;;;;60.67;35.78;;;3.80;99.90;;;;;;5084621;28;20428;-61
2023/02/10 01:50:27;;;;;;;56.08;36.13;;;3.90;99.90;;;;;;5084516;28;20415;-60
2023/02/10 01:52:55;;;;;;;62.72;36.85;;;3.90;99.90;;;;;;5086137;28;20425;-59
2023/02/10 01:55:25;;;;;;;65.68;39.60;;;3.90;99.90;;;;;;5082281;28;20422;-60
2023/02/10 01:57:54;;;;;;;61.35;38.42;;;3.80;99.90;;;;;;5079158;28;20423;-61
2023/02/10 02:00:21;;;;;;;66.68;38.08;;;3.90;99.90;;;;;;5076482;28;20428;-61
2023/02/10 02:02:49;;;;;;;61.63;37.25;;;3.90;99.90;;;;;;5083207;28;20502;-61
2023/02/10 02:05:29;;;;;;;66.10;38.55;;;3.90;99.90;;;;;;5082265;28;20959;-61
2023/02/10 02:08:01;;;;;;;63.95;37.17;;;3.70;99.90;;;;;;5086566;28;20423;-60
2023/02/10 02:10:39;;;;;;;60.33;37.33;;;3.80;99.90;;;;;;5085783;28;20440;-61
2023/02/10 02:13:16;;;;;;;59.20;37.95;;;3.90;99.90;;;;;;5087972;28;20414;-61
2023/02/10 02:15:50;;;;;;;66.97;38.47;;;4.00;99.90;;;;;;5087277;28;20428;-61
2023/02/10 02:18:25;;;;;;;64.90;37.80;;;3.90;99.90;;;;;;5083617;28;20837;-60
2023/02/10 02:21:24;;;;;;;60.92;37.00;;;3.90;99.90;;;;;;5084207;28;20414;-61
2023/02/10 02:24:20;;;;;;;59.40;36.70;;;4.00;99.90;;;;;;5078053;28;20491;-61
2023/02/10 02:27:13;;;;;;;60.13;38.10;;;4.00;99.90;;;;;;5081735;28;20425;-60
2023/02/10 02:30:15;;;;;;;60.55;36.63;;;4.00;99.90;;;;;;5079370;28;20431;-60
2023/02/10 02:32:47;;;;;;;59.88;36.22;;;4.10;99.90;;;;;;5081749;28;20449;-61
2023/02/10 02:35:17;;;;;;;59.83;37.13;;;4.10;99.90;;;;;;5085083;28;20418;-59
2023/02/10 02:37:46;;;;;;;60.38;36.58;;;4.10;99.90;;;;;;5085390;28;20442;-61
2023/02/10 02:40:15;;;;;;;63.45;38.20;;;3.80;99.90;;;;;;5087227;28;20413;-62
2023/02/10 02:42:42;;;;;;;62.05;38.42;;;3.80;99.90;;;;;;5089464;28;20945;-61
2023/02/10 02:45:11;;;;;;;64.15;38.45;;;3.80;99.90;;;;;;5082074;28;20408;-62
2023/02/10 02:48:02;;;;;;;66.50;40.60;;;3.80;99.90;;;;;;5081431;28;20461;-61
2023/02/10 02:50:35;;;;;;;65.72;38.13;;;3.70;99.90;;;;;;5085802;28;20471;-60
2023/02/10 02:53:18;;;;;;;68.22;40.58;;;3.60;99.90;;;;;;5082617;28;20416;-61
2023/02/10 02:55:53;;;;;;;64.93;40.37;;;3.60;99.90;;;;;;5082951;28;20410;-59
2023/02/10 02:58:28;;;;;;;70.07;40.47;;;3.50;99.90;;;;;;5078773;28;20416;-61
2023/02/10 03:01:00;;;;;;;67.28;39.90;;;3.50;99.90;;;;;;5084318;28;20805;-61
2023/02/10 03:03:28;;;;;;;67.40;39.97;;;3.60;99.90;;;;;;5077459;28;20920;-61
2023/02/10 03:05:55;;;;;;;70.72;40.75;;;3.50;99.90;;;;;;5086651;28;20467;-61
2023/02/10 03:08:22;;;;;;;74.47;44.25;;;3.40;99.90;;;;;;5088092;28;20426;-61
2023/02/10 03:10:48;;;;;;;75.85;42.40;;;3.00;99.90;;;;;;5086056;28;20471;-61
2023/02/10 03:13:15;;;;;;;79.13;44.47;;;3.10;99.90;;;;;;5087589;28;20473;-61
2023/02/10 03:15:42;;;;;;;77.32;43.33;;;2.90;99.90;;;;;;5081083;28;20797;-61
2023/02/10 03:18:08;;;;;;;73.07;43.85;;;2.80;99.90;;;;;;5088587;28;20413;-61
2023/02/10 03:20:36;;;;;;;74.17;44.13;;;2.90;99.90;;;;;;5080164;28;20414;-61
2023/02/10 03:23:03;;;;;;;76.93;45.83;;;2.80;99.90;;;;;;5081366;28;20449;-60
2023/02/10 03:25:30;;;;;;;81.05;47.90;;;2.70;99.90;;;;;;5077834;28;20448;-62
2023/02/10 03:27:56;;;;;;;84.80;47.33;;;2.50;99.90;;;;;;5085785;28;20621;-61
2023/02/10 03:30:23;;;;;;;81.45;48.15;;;2.50;99.90;;;;;;5082213;28;20449;-61
2023/02/10 03:32:51;;;;;;;84.40;47.70;;;2.50;99.90;;;;;;5079743;28;20466;-61
2023/02/10 03:35:18;;;;;;;77.78;46.30;;;2.50;99.90;;;;;;5084515;28;20568;-61
2023/02/10 03:37:46;;;;;;;84.45;47.65;;;2.50;99.90;;;;;;5082094;28;20468;-62
2023/02/10 03:40:13;;;;;;;94.80;50.22;;;2.50;99.90;;;;;;5080941;28;20465;-61
2023/02/10 03:42:39;;;;;;;82.93;47.90;;;2.40;99.90;;;;;;5091869;28;20463;-62
2023/02/10 03:45:07;;;;;;;90.55;49.47;;;2.40;99.90;;;;;;5080963;28;20424;-61
2023/02/10 03:47:34;;;;;;;82.75;47.83;;;2.40;99.90;;;;;;5085880;28;20421;-61
2023/02/10 03:50:00;;;;;;;86.00;48.85;;;2.40;99.90;;;;;;5075816;28;20510;-61
2023/02/10 03:52:27;;;;;;;89.57;50.83;;;2.30;99.90;;;;;;5085210;28;20490;-62
2023/02/10 03:54:55;;;;;;;85.80;48.53;;;2.30;99.90;;;;;;5079946;28;20412;-62
2023/02/10 03:57:21;;;;;;;90.80;50.78;;;2.30;99.90;;;;;;5078928;28;20902;-61
2023/02/10 03:59:48;;;;;;;87.50;49.88;;;2.20;99.90;;;;;;5086274;28;20904;-62
2023/02/10 04:02:15;;;;;;;77.45;47.08;;;2.30;99.90;;;;;;5076395;28;20419;-62
2023/02/10 04:04:41;;;;;;;81.43;46.17;;;2.30;99.90;;;;;;5080491;28;20486;-62
2023/02/10 04:07:08;;;;;;;81.43;47.58;;;2.40;99.90;;;;;;5082886;28;20418;-62
2023/02/10 04:09:35;;;;;;;82.90;46.80;;;2.40;99.90;;;;;;5078639;28;20853;-63
2023/02/10 04:12:03;;;;;;;85.63;48.70;;;2.20;99.90;;;;;;5087784;28;20471;-61
2023/02/10 04:14:30;;;;;;;88.82;48.50;;;2.30;99.90;;;;;;5079458;28;20413;-62
2023/02/10 04:16:57;;;;;;;86.82;48.35;;;2.20;99.90;;;;;;5086151;28;20420;-62
2023/02/10 04:19:23;;;;;;;79.80;47.72;;;2.10;99.90;;;;;;5085119;28;20414;-59
2023/02/10 04:21:50;;;;;;;88.85;48.58;;;2.20;99.90;;;;;;5079049;28;20904;-62
2023/02/10 04:24:17;;;;;;;88.63;49.70;;;2.10;99.90;;;;;;5083477;28;20427;-61
2023/02/10 04:26:43;;;;;;;93.53;50.13;;;2.00;99.90;;;;;;5081002;28;20469;-62
2023/02/10 04:29:11;;;;;;;89.32;49.50;;;1.90;99.90;;;;;;5077781;28;20930;-62
2023/02/10 04:31:38;;;;;;;88.97;49.72;;;1.80;99.90;;;;;;5078948;28;20891;-62
2023/02/10 04:34:05;;;;;;;94.50;50.53;;;1.70;99.90;;;;;;5084723;28;20420;-62
2023/02/10 04:36:31;;;;;;;103.33;54.23;;;1.70;99.90;;;;;;5083570;28;20438;-62
2023/02/10 04:38:58;;;;;;;111.15;56.03;;;1.50;99.90;;;;;;5084184;28;20459;-62
2023/02/10 04:41:25;;;;;;;106.95;55.45;;;1.50;99.90;;;;;;5086535;28;20410;-60
2023/02/10 04:43:52;;;;;;;108.43;55.47;;;1.50;99.90;;;;;;5086233;28;20475;-61
2023/02/10 04:46:20;;;;;;;111.35;57.25;;;1.60;99.90;;;;;;5080416;28;20472;-61
2023/02/10 04:48:46;;;;;;;99.85;54.17;;;1.50;99.90;;;;;;5079323;28;20916;-61
2023/02/10 04:51:14;;;;;;;108.43;55.85;;;1.50;99.90;;;;;;5076766;28;20421;-61
2023/02/10 04:53:43;;;;;;;109.78;57.38;;;1.40;99.90;;;;;;5078216;28;20419;-62
2023/02/10 04:56:10;;;;;;;109.82;55.17;;;1.40;99.90;;;;;;5086016;28;20512;-62
2023/02/10 04:58:37;;;;;;;111.90;57.40;;;1.40;99.90;;;;;;5080593;28;20471;-62
2023/02/10 05:01:03;;;;;;;109.60;55.93;;;1.30;99.90;;;;;;5079625;28;20509;-60
2023/02/10 05:03:32;;;;;;;103.15;55.38;;;1.30;99.90;;;;;;5082907;28;20415;-62
2023/02/10 05:05:59;;;;;;;112.15;58.28;;;1.30;99.90;;;;;;5084022;28;20413;-61
2023/02/10 05:08:25;;;;;;;113.75;57.05;;;1.30;99.90;;;;;;5081272;28;20451;-62
2023/02/10 05:10:54;;;;;;;109.88;56.63;;;1.30;99.90;;;;;;5077841;28;20419;-61
2023/02/10 05:13:21;;;;;;;112.57;56.37;;;1.30;99.90;;;;;;5082567;28;20419;-61
2023/02/10 05:15:48;;;;;;;114.53;58.05;;;1.30;99.90;;;;;;5084972;28;20479;-60
2023/02/10 05:18:15;;;;;;;103.80;55.67;;;1.20;99.90;;;;;;5078268;28;20836;-61
2023/02/10 05:20:43;;;;;;;119.00;60.35;;;1.30;99.90;;;;;;5076740;28;20423;-61
2023/02/10 05:23:09;;;;;;;106.27;56.47;;;1.20;99.90;;;;;;5075093;28;20465;-61
2023/02/10 05:25:36;;;;;;;115.25;58.15;;;1.20;99.90;;;;;;5086437;28;20425;-64
2023/02/10 05:28:03;;;;;;;111.85;58.10;;;1.20;99.90;;;;;;5090536;28;20942;-64
2023/02/10 05:30:29;;;;;;;103.85;54.40;;;1.30;99.90;;;;;;5084133;28;20430;-64
2023/02/10 05:32:56;;;;;;;116.65;59.53;;;1.30;99.90;;;;;;5086124;28;20417;-64
2023/02/10 05:35:23;;;;;;;121.43;59.40;;;1.20;99.90;;;;;;5085988;28;20415;-64
2023/02/10 05:37:51;;;;;;;119.93;59.72;;;1.10;99.90;;;;;;5084815;28;20417;-64
2023/02/10 05:40:18;;;;;;;120.40;61.15;;;1.10;99.90;;;;;;5085860;28;20413;-64
2023/02/10 05:42:45;;;;;;;123.90;60.00;;;1.10;99.90;;;;;;5088491;28;20482;-63
2023/02/10 05:45:11;;;;;;;117.55;57.45;;;1.20;99.90;;;;;;5092483;28;20422;-63
2023/02/10 05:47:38;;;;;;;116.30;57.40;;;1.30;99.90;;;;;;5089197;28;20421;-63
2023/02/10 05:50:05;;;;;;;115.30;57.73;;;1.30;99.90;;;;;;5088838;28;20425;-63
2023/02/10 05:52:32;;;;;;;109.13;57.28;;;1.30;99.90;;;;;;5087442;28;20839;-63
2023/02/10 05:55:00;;;;;;;114.53;57.05;;;1.20;99.90;;;;;;5087622;28;20484;-64
2023/02/10 05:57:26;;;;;;;114.30;56.70;;;1.30;99.90;;;;;;5085673;28;20420;-63
2023/02/10 05:59:53;;;;;;;108.90;55.72;;;1.20;99.90;;;;;;5079479;28;20411;-63
2023/02/10 06:02:20;;;;;;;110.65;55.97;;;1.30;99.90;;;;;;5078729;28;20422;-63
2023/02/10 06:04:47;;;;;;;110.97;55.92;;;1.20;99.90;;;;;;5081068;28;20837;-63
2023/02/10 06:07:13;;;;;;;117.07;57.97;;;1.30;99.90;;;;;;5085275;28;20424;-63
2023/02/10 06:09:40;;;;;;;119.43;57.53;;;1.20;99.90;;;;;;5086007;28;20431;-63
2023/02/10 06:12:08;;;;;;;128.35;58.97;;;1.10;99.90;;;;;;5092240;28;20474;-63
2023/02/10 06:14:37;;;;;;;122.25;58.22;;;1.10;99.90;;;;;;5081693;28;20420;-63
2023/02/10 06:17:08;;;;;;;118.72;57.00;;;1.20;99.90;;;;;;5086278;28;20522;-63
2023/02/10 06:19:35;;;;;;;116.63;54.58;;;1.20;99.90;;;;;;5080359;28;20502;-63
2023/02/10 06:22:02;;;;;;;126.10;58.87;;;1.20;99.90;;;;;;5087569;28;20448;-64
2023/02/10 06:24:29;;;;;;;125.85;57.65;;;1.10;99.90;;;;;;5084438;28;20916;-63
2023/02/10 06:26:56;;;;;;;130.07;60.45;;;1.10;99.90;;;;;;5084190;28;20422;-67
2023/02/10 06:29:24;;;;;;;128.50;60.03;;;1.10;99.90;;;;;;5087553;28;20426;-63
2023/02/10 06:31:51;;;;;;;117.87;56.43;;;1.20;99.90;;;;;;5090102;28;20418;-63
2023/02/10 06:34:19;;;;;;;115.97;55.83;;;1.30;99.90;;;;;;5085470;28;20416;-62
2023/02/10 06:36:45;;;;;;;118.03;56.67;;;1.30;99.90;;;;;;5084132;28;20421;-65
2023/02/10 06:39:12;;;;;;;117.28;55.17;;;1.40;99.90;;;;;;5085676;28;20411;-63
2023/02/10 06:41:39;;;;;;;109.45;53.88;;;1.40;99.90;;;;;;5088585;28;20425;-63
2023/02/10 06:44:06;;;;;;;102.55;51.63;;;1.50;99.90;;;;;;5087510;28;20415;-62
2023/02/10 06:46:34;;;;;;;111.03;56.08;;;1.50;99.90;;;;;;5086396;28;20425;-63
2023/02/10 06:49:02;;;;;;;119.47;55.10;;;1.40;99.90;;;;;;5085313;28;20423;-62
2023/02/10 06:51:28;;;;;;;118.97;55.97;;;1.40;99.90;;;;;;5089337;28;20452;-62
2023/02/10 06:53:55;;;;;;;125.93;57.47;;;1.40;99.90;;;;;;5084201;28;20918;-61
2023/02/10 06:56:22;;;;;;;120.20;56.70;;;1.40;99.90;;;;;;5082325;28;20411;-60
2023/02/10 06:58:48;;;;;;;121.18;57.05;;;1.40;99.90;;;;;;5088366;28;20462;-62
2023/02/10 07:01:18;;;;;;;110.93;54.90;;;1.50;99.90;;;;;;5089726;28;20418;-67
2023/02/10 07:03:46;;;;;;;109.90;54.30;;;1.60;99.90;;;;;;5079369;28;20477;-62
2023/02/10 07:06:12;;;;;;;113.65;53.90;;;1.60;99.90;;;;;;5085009;28;20471;-63
2023/02/10 07:08:39;;;;;;;111.95;54.35;;;1.70;99.90;;;;;;5085969;28;20416;-63
2023/02/10 07:11:06;;;;;;;109.60;52.75;;;1.70;99.90;;;;;;5088931;28;20908;-63
2023/02/10 07:13:33;;;;;;;115.30;54.85;;;1.70;99.90;;;;;;5089321;28;20471;-60
2023/02/10 07:15:59;;;;;;;109.68;52.35;;;1.70;99.90;;;;;;5080324;28;20410;-63
2023/02/10 07:18:27;;;;;;;114.93;51.63;;;1.70;99.90;;;;;;5084880;28;20837;-63
2023/02/10 07:20:55;;;;;;;110.43;54.22;;;1.60;99.90;;;;;;5084560;28;20425;-63
2023/02/10 07:23:22;;;;;;;110.15;53.47;;;1.60;99.90;;;;;;5076215;28;20421;-63
2023/02/10 07:25:49;;;;;;;109.80;53.30;;;1.60;99.90;;;;;;5079563;28;20463;-63
2023/02/10 07:28:16;;;;;;;110.82;53.15;;;1.60;99.90;;;;;;5080641;28;20417;-63
2023/02/10 07:30:42;;;;;;;110.72;54.53;;;1.60;99.90;;;;;;5083771;28;20426;-62
2023/02/10 07:33:09;;;;;;;100.72;50.03;;;1.60;99.90;;;;;;5084222;28;20425;-61
2023/02/10 07:35:36;;;;;;;106.50;51.78;;;1.60;99.90;;;;;;5083997;28;20467;-65
2023/02/10 07:38:04;;;;;;;109.05;52.45;;;1.60;99.90;;;;;;5083764;28;20467;-64
2023/02/10 07:40:31;;;;;;;111.90;53.83;;;1.60;99.90;;;;;;5087428;28;20417;-64
2023/02/10 07:42:58;;;;;;;110.00;52.90;;;1.60;99.90;;;;;;5084884;28;20439;-63
2023/02/10 07:45:26;;;;;;;112.07;52.70;;;1.60;99.90;;;;;;5088428;28;20410;-62
2023/02/10 07:47:52;;;;;;;109.53;53.55;;;1.60;99.90;;;;;;5083237;28;20419;-62
2023/02/10 07:50:19;;;;;;;104.90;51.92;;;1.60;99.90;;;;;;5084164;28;20429;-61
2023/02/10 07:52:47;;;;;;;105.78;52.10;;;1.70;99.90;;;;;;5080783;28;20423;-62
2023/02/10 07:55:16;;;;;;;100.40;51.20;;;1.60;99.90;;;;;;5081915;28;20420;-61
2023/02/10 07:57:43;;;;;;;118.07;55.15;;;1.70;99.90;;;;;;5081791;28;20414;-63
2023/02/10 08:00:12;;;;;;;109.50;54.08;;;1.50;99.90;;;;;;5086758;28;20412;-63
2023/02/10 08:02:38;;;;;;;113.63;53.72;;;1.60;99.90;;;;;;5083450;28;20479;-62
2023/02/10 08:05:06;;;;;;;115.05;55.08;;;1.70;99.90;;;;;;5082176;28;20958;-60
2023/02/10 08:07:33;;;;;;;116.43;55.45;;;1.70;99.90;;;;;;5080765;28;20563;-62
2023/02/10 08:09:59;;;;;;;107.65;55.03;;;1.70;99.90;;;;;;5081747;28;20428;-61
2023/02/10 08:12:27;;;;;;;114.00;56.47;;;1.80;99.90;;;;;;5086621;28;20912;-63
2023/02/10 08:14:54;;;;;;;106.88;53.38;;;1.80;99.90;;;;;;5079680;28;20423;-62
2023/02/10 08:17:21;;;;;;;110.53;55.63;;;1.90;99.90;;;;;;5084424;28;21087;-64
2023/02/10 08:19:47;;;;;;;107.88;53.60;;;2.00;99.90;;;;;;5081164;28;20783;-62
2023/02/10 08:22:14;;;;;;;98.97;52.97;;;2.10;99.90;;;;;;5081702;28;20417;-63
2023/02/10 08:24:41;;;;;;;104.13;53.58;;;2.10;99.90;;;;;;5078163;28;20417;-62
2023/02/10 08:27:07;;;;;;;99.90;52.17;;;2.20;99.90;;;;;;5080700;28;20423;-61
2023/02/10 08:29:35;;;;;;;95.23;50.87;;;2.40;99.90;;;;;;5078779;28;20426;-64
2023/02/10 08:32:02;;;;;;;97.13;50.35;;;2.40;99.90;;;;;;5083012;28;20835;-64
2023/02/10 08:34:29;;;;;;;96.57;50.95;;;2.40;99.90;;;;;;5079350;28;20415;-63
2023/02/10 08:36:56;;;;;;;96.30;51.20;;;2.40;99.90;;;;;;5082906;28;20512;-64
2023/02/10 08:39:23;;;;;;;101.07;52.90;;;2.30;99.90;;;;;;5078944;28;20959;-63
2023/02/10 08:41:49;;;;;;;97.70;50.70;;;2.30;99.90;;;;;;5088608;28;20471;-61
2023/02/10 08:44:16;;;;;;;101.13;53.00;;;2.40;99.90;;;;;;5086758;28;20414;-63
2023/02/10 08:46:44;;;;;;;100.07;51.80;;;2.30;99.90;;;;;;5079110;28;20445;-64
2023/02/10 08:49:11;;;;;;;100.10;51.58;;;2.40;99.90;;;;;;5080748;28;20410;-64
2023/02/10 08:51:39;;;;;;;96.70;51.70;;;2.60;99.90;;;;;;5082167;28;20422;-64
2023/02/10 08:54:06;;;;;;;85.70;49.30;;;2.60;99.90;;;;;;5083475;28;20490;-65
2023/02/10 08:56:33;;;;;;;91.22;49.10;;;2.70;99.90;;;;;;5086648;28;20475;-66
2023/02/10 08:59:00;;;;;;;88.30;47.35;;;2.80;99.90;;;;;;5081934;28;20417;-65
2023/02/10 09:01:27;;;;;;;83.40;47.42;;;3.00;99.90;;;;;;5087957;28;20417;-65
2023/02/10 09:03:55;;;;;;;93.90;48.00;;;3.00;99.90;;;;;;5078824;28;20403;-65
2023/02/10 09:06:25;;;;;;;82.55;44.95;;;3.20;99.90;;;;;;5083341;28;20815;-64
2023/02/10 09:08:53;;;;;;;77.20;44.00;;;3.40;99.90;;;;;;5075899;28;20419;-64
2023/02/10 09:11:21;;;;;;;84.93;45.10;;;3.50;99.90;;;;;;5083524;28;20505;-65
2023/02/10 09:13:48;;;;;;;80.53;44.03;;;3.50;99.90;;;;;;5083178;28;20425;-64
2023/02/10 09:16:15;;;;;;;78.10;43.80;;;3.70;99.90;;;;;;5079084;28;20415;-63
2023/02/10 09:18:42;;;;;;;78.38;43.35;;;3.70;99.90;;;;;;5078349;28;20415;-63
2023/02/10 09:21:10;;;;;;;72.82;42.15;;;3.90;99.90;;;;;;5074705;28;20760;-65
2023/02/10 09:23:37;;;;;;;72.70;42.72;;;3.90;99.90;;;;;;5082358;28;20469;-65
2023/02/10 09:26:04;;;;;;;82.53;44.60;;;3.90;99.90;;;;;;5078641;28;20423;-65
2023/02/10 09:28:31;;;;;;;77.50;42.65;;;3.80;99.90;;;;;;5084954;28;20437;-65
2023/02/10 09:30:58;;;;;;;76.80;43.85;;;4.00;99.90;;;;;;5084012;28;20438;-63
2023/02/10 09:33:24;;;;;;;76.00;42.45;;;3.80;99.90;;;;;;5083115;28;20908;-62
2023/02/10 09:35:51;;;;;;;74.93;41.80;;;3.70;99.90;;;;;;5087083;28;20467;-65
2023/02/10 09:38:19;;;;;;;76.68;42.08;;;3.70;99.90;;;;;;5085438;28;20781;-63
2023/02/10 09:40:51;;;;;;;80.43;42.95;;;3.70;99.90;;;;;;5080695;28;20414;-62
2023/02/10 09:43:29;;;;;;;81.20;41.80;;;3.70;99.90;;;;;;5081517;28;20497;-63
2023/02/10 09:46:01;;;;;;;75.10;39.97;;;3.70;99.90;;;;;;5069350;28;20420;-65
2023/02/10 09:48:39;;;;;;;75.78;41.17;;;3.90;99.90;;;;;;5084647;28;20417;-65
2023/02/10 09:51:12;;;;;;;78.07;42.72;;;3.90;99.90;;;;;;5082922;28;20431;-64
2023/02/10 09:53:41;;;;;;;75.65;40.65;;;3.70;99.90;;;;;;5078910;28;20419;-63
2023/02/10 09:56:14;;;;;;;82.28;43.40;;;3.80;99.90;;;;;;5079835;28;20459;-63
2023/02/10 09:58:57;;;;;;;80.03;42.88;;;3.80;99.90;;;;;;5079744;28;20896;-62
2023/02/10 10:01:28;;;;;;;80.78;42.30;;;3.80;99.90;;;;;;5069804;28;20795;-62
2023/02/10 10:04:01;;;;;;;77.70;42.83;;;3.70;99.90;;;;;;5080218;28;20419;-62
2023/02/10 10:06:30;;;;;;;78.57;42.17;;;3.90;99.90;;;;;;5078477;28;20416;-63
2023/02/10 10:09:10;;;;;;;75.75;41.78;;;4.00;99.90;;;;;;5079978;28;20422;-64
2023/02/10 10:11:39;;;;;;;77.00;40.92;;;4.00;99.90;;;;;;5083873;28;20422;-64
2023/02/10 10:14:06;;;;;;;;;;;4.20;99.90;;;;;;5089579;28;20422;-63
2023/02/10 10:16:43;;;;;;;;;;;4.30;99.90;;;;;;5083567;28;19923;-62
2023/02/10 10:19:15;;;;;;;;;;;4.20;99.90;;;;;;5085862;28;19943;-62
2023/02/10 10:21:45;;;;;;;;;;;4.20;99.90;;;;;;5084470;28;19920;-62
2023/02/10 10:24:22;;;;;;;;;;;4.00;99.90;;;;;;5085682;28;20426;-62
2023/02/10 10:26:54;;;;;;;;;;;4.00;99.90;;;;;;5086615;28;19954;-62
2023/02/10 10:29:29;;;;;;;66.88;37.42;;;4.00;99.90;;;;;;5080478;28;20408;-62
2023/02/10 10:32:06;;;;;;;69.05;39.17;;;4.00;99.90;;;;;;5081186;28;20808;-62
2023/02/10 10:34:37;;;;;;;69.22;38.00;;;3.90;99.90;;;;;;5085177;28;20991;-62
2023/02/10 10:37:12;;;;;;;67.15;38.28;;;4.10;99.90;;;;;;5083333;28;20536;-63
2023/02/10 10:39:43;;;;;;;70.22;38.85;;;4.10;99.90;;;;;;5083579;28;20967;-62
2023/02/10 10:42:20;;;;;;;67.43;37.15;;;4.20;99.90;;;;;;5086683;28;20884;-62
2023/02/10 10:44:49;;;;;;;68.45;39.08;;;4.30;99.90;;;;;;5083260;28;20430;-64
2023/02/10 10:47:21;;;;;;;66.57;37.78;;;4.30;99.90;;;;;;5083971;28;20418;-61
2023/02/10 10:49:48;;;;;;;67.45;38.45;;;4.40;99.90;;;;;;5082895;28;20459;-66
2023/02/10 10:52:27;;;;;;;65.03;38.10;;;4.40;99.90;;;;;;5088695;28;20493;-63
2023/02/10 10:54:55;;;;;;;;;;;4.70;99.90;;;;;;5082259;28;20453;-63
2023/02/10 10:57:22;;;;;;;;;;;4.80;99.90;;;;;;5090356;28;19924;-62
2023/02/10 10:59:51;;;;;;;;;;;5.20;99.90;;;;;;5087583;28;19924;-62
2023/02/10 11:02:19;;;;;;;;;;;5.60;99.90;;;;;;5088720;28;19958;-63
2023/02/10 11:04:46;;;;;;;;;;;5.80;91.90;;;;;;5088182;28;19920;-61
2023/02/10 11:07:17;;;;;;;;;;;5.90;86.40;;;;;;5087236;28;19920;-63
2023/02/10 11:09:49;;;;;;;;;;;5.90;82.70;;;;;;5082690;28;19927;-62
2023/02/10 11:12:20;;;;;;;;;;;5.60;80.50;;;;;;5089777;28;19927;-63
2023/02/10 11:14:50;;;;;;;;;;;5.60;90.50;;;;;;5085459;28;19924;-62
2023/02/10 11:17:21;;;;;;;;;;;5.90;91.60;;;;;;5087948;28;19965;-64
2023/02/10 11:19:54;;;;;;;;;;;6.00;72.20;;;;;;5083596;28;19924;-62
2023/02/10 11:22:21;;;;;;;;;;;6.00;42.00;;;;;;5072497;28;19927;-61
2023/02/10 11:24:49;;;;;;;;;;;6.00;44.40;;;;;;5074452;28;19920;-61
2023/02/10 11:27:17;;;;;;;;;;;6.00;37.40;;;;;;5080196;28;19920;-64
2023/02/10 11:29:47;;;;;;;;;;;6.00;44.40;;;;;;5080656;28;19975;-62
2023/02/10 11:32:18;;;;;;;;;;;5.80;39.30;;;;;;5080575;28;19920;-61
2023/02/10 11:34:46;;;;;;;;;;;5.90;60.30;;;;;;5081488;28;19921;-62
2023/02/10 11:37:14;;;;;;;;;;;5.70;46.90;;;;;;5089194;28;19935;-63
2023/02/10 11:39:43;;;;;;;;;;;5.80;75.50;;;;;;5080341;28;19974;-61
2023/02/10 11:42:11;;;;;;;;;;;5.90;75.10;;;;;;5087410;28;20387;-62
2023/02/10 11:44:39;;;;;;;;;;;6.00;61.50;;;;;;5089754;28;19920;-62
2023/02/10 11:47:13;;;;;;;;;;;6.10;40.10;;;;;;5084920;28;19971;-62
2023/02/10 11:49:43;;;;;;;;;;;6.10;47.80;;;;;;5080760;28;19924;-63
2023/02/10 11:52:09;;;;;;;;;;;6.10;43.50;;;;;;5082533;28;19928;-60
2023/02/10 11:54:37;;;;;;;;;;;6.00;22.80;;;;;;5083030;28;19928;-63
2023/02/10 12:00:07;;;;;;;;;;;6.00;48.40;;;;;;5082820;28;19922;-63
2023/02/10 12:02:38;;;;;;;;;;;6.20;40.70;;;;;;5083880;28;20432;-63
2023/02/10 12:05:13;;;;;;;;;;;6.40;1.00;;;;;;5084150;28;20344;-63
2023/02/10 12:07:46;;;;;;;;;;;6.40;1.00;;;;;;5078194;28;19920;-65
2023/02/10 12:10:17;;;;;;;;;;;6.60;1.00;;;;;;5084208;28;19927;-62
2023/02/10 12:12:48;;;;;;;;;;;6.60;1.00;;;;;;5087119;28;20341;-66
2023/02/10 12:15:22;;;;;;;;;;;6.60;1.00;;;;;;5093582;28;20609;-71
2023/02/10 12:17:55;;;;;;;;;;;6.60;21.20;;;;;;5084963;28;20420;-69
2023/02/10 12:20:34;;;;;;;;;;;6.60;1.00;;;;;;5086359;28;19974;-70
2023/02/10 12:23:15;;;;;;;;;;;6.60;1.00;;;;;;5088305;28;19920;-69
2023/02/10 12:25:46;;;;;;;;;;;6.80;1.00;;;;;;5072314;28;19920;-63
2023/02/10 12:28:15;;;;;;;;;;;7.00;1.00;;;;;;5083957;28;19966;-63
2023/02/10 12:30:46;;;;;;;;;;;6.90;1.00;;;;;;5077539;28;20383;-63
2023/02/10 12:33:20;;;;;;;;;;;7.00;1.00;;;;;;5081752;28;19920;-64
2023/02/10 12:35:49;;;;;;;;;;;7.00;1.00;;;;;;5077773;28;19983;-63
2023/02/10 12:38:22;;;;;;;;;;;6.70;1.00;;;;;;5077470;28;19959;-64
2023/02/10 12:40:52;;;;;;;;;;;6.70;1.00;;;;;;5085641;28;19923;-63
2023/02/10 12:43:28;;;;;;;;;;;6.70;1.00;;;;;;5090065;28;19924;-64
2023/02/10 12:46:00;;;;;;;;;;;6.60;1.00;;;;;;5085074;28;19920;-64
2023/02/10 12:48:29;;;;;;;;;;;6.60;1.00;;;;;;5072394;28;19924;-64
2023/02/10 12:51:03;;;;;;;;;;;6.60;1.00;;;;;;5079857;28;19920;-65
2023/02/10 12:53:32;;;;;;;;;;;6.60;1.00;;;;;;5082188;28;19924;-65
2023/02/10 12:56:00;;;;;;;;;;;6.80;1.00;;;;;;5084240;28;19920;-65
2023/02/10 12:58:30;;;;;;;;;;;6.70;1.00;;;;;;5087818;28;19920;-65
2023/02/10 13:01:06;;;;;;;;;;;6.90;1.00;;;;;;5083945;28;19927;-65
2023/02/10 13:03:34;;;;;;;;;;;7.00;1.00;;;;;;5084565;28;19920;-65
2023/02/10 13:06:07;;;;;;;;;;;7.20;1.00;;;;;;5080990;28;19931;-64